Time;durP1;ratioP1;P1;durP2;ratioP2;P2;SDS_P1;SDS_P2;PMS_P1;PMS_P2;Temp;Humidity;BMP_temperature;BMP_pressure;BME280_temperature;BME280_humidity;BME280_pressure;Samples;Min_cycle;Max_cycle;Signal;HPM_P1;HPM_P2
2023/12/04 00:00:58;;;;;;;20.17;12.20;;;;;;;-4.79;100.00;150154.56;5007394;28;20477;-74
2023/12/04 00:03:25;;;;;;;21.47;13.50;;;;;;;-4.72;100.00;150171.22;5009417;28;20441;-74
2023/12/04 00:05:51;;;;;;;18.33;12.50;;;;;;;-4.74;100.00;150166.13;5009526;28;20456;-74
2023/12/04 00:08:18;;;;;;;16.03;10.93;;;;;;;-4.74;100.00;150166.13;4981711;28;20541;-75
2023/12/04 00:10:44;;;;;;;20.80;11.60;;;;;;;-4.79;100.00;150153.34;5006381;28;20462;-75
2023/12/04 00:13:11;;;;;;;15.20;11.10;;;;;;;-4.84;100.00;150140.56;4988056;28;20464;-76
2023/12/04 00:15:37;;;;;;;18.53;11.43;;;;;;;-4.84;100.00;150140.56;5005518;28;20967;-75
2023/12/04 00:18:05;;;;;;;16.47;11.40;;;;;;;-4.83;100.00;150143.09;5004378;28;20807;-75
2023/12/04 00:20:32;;;;;;;19.07;11.83;;;;;;;-4.83;100.00;150143.09;4994098;28;20460;-76
2023/12/04 00:22:58;;;;;;;17.83;11.30;;;;;;;-4.83;100.00;150143.09;4978768;28;20430;-76
2023/12/04 00:25:25;;;;;;;15.63;12.23;;;;;;;-4.83;100.00;150144.38;4987309;28;20435;-76
2023/12/04 00:27:51;;;;;;;22.17;12.33;;;;;;;-4.89;100.00;150127.75;4989959;28;20554;-76
2023/12/04 00:30:18;;;;;;;16.70;12.60;;;;;;;-4.94;100.00;150117.56;5004573;28;20447;-75
2023/12/04 00:32:44;;;;;;;17.03;11.63;;;;;;;-4.97;100.00;150109.88;5005056;28;20415;-75
2023/12/04 00:35:12;;;;;;;16.73;11.53;;;;;;;-4.94;100.00;150116.28;5003590;28;20451;-75
2023/12/04 00:37:39;;;;;;;18.53;12.00;;;;;;;-4.90;100.00;150126.53;4989701;28;20445;-75
2023/12/04 00:40:08;;;;;;;17.83;9.80;;;;;;;-4.86;100.00;150135.44;4990405;28;20440;-75
2023/12/04 00:42:35;;;;;;;16.13;11.43;;;;;;;-4.85;100.00;150138.00;4989176;28;20462;-75
2023/12/04 00:45:03;;;;;;;17.90;12.50;;;;;;;-4.80;100.00;150150.78;4989425;28;20449;-75
2023/12/04 00:47:30;;;;;;;12.93;9.67;;;;;;;-4.82;100.00;150146.97;4991454;28;20454;-75
2023/12/04 00:49:56;;;;;;;18.30;10.30;;;;;;;-4.85;100.00;150138.00;4989679;28;21095;-75
2023/12/04 00:52:24;;;;;;;17.00;10.50;;;;;;;-4.88;100.00;150130.31;5006747;28;20535;-75
2023/12/04 00:54:51;;;;;;;14.97;10.27;;;;;;;-4.90;100.00;150126.53;4991368;28;20524;-75
2023/12/04 00:57:17;;;;;;;14.47;10.53;;;;;;;-4.96;100.00;150111.19;4990415;28;20458;-75
2023/12/04 00:59:44;;;;;;;15.70;10.87;;;;;;;-5.04;100.00;150092.03;4988915;28;20808;-75
2023/12/04 01:02:10;;;;;;;21.10;12.33;;;;;;;-5.09;100.00;150079.25;4990414;28;20515;-75
2023/12/04 01:04:37;;;;;;;17.40;10.63;;;;;;;-5.05;100.00;150089.44;4992362;28;20956;-75
2023/12/04 01:07:04;;;;;;;16.40;10.53;;;;;;;-5.08;100.00;150081.78;4974717;28;20996;-75
2023/12/04 01:09:31;;;;;;;15.07;11.43;;;;;;;-5.06;100.00;150086.94;5007405;28;20510;-75
2023/12/04 01:11:58;;;;;;;16.20;11.27;;;;;;;-5.06;100.00;150086.94;5041265;28;20454;-75
2023/12/04 01:14:24;;;;;;;14.00;11.60;;;;;;;-5.06;100.00;150085.63;5041999;28;20459;-75
2023/12/04 01:16:51;;;;;;;15.83;10.33;;;;;;;-5.04;100.00;150092.03;5023600;28;20427;-75
2023/12/04 01:19:17;;;;;;;18.60;11.80;;;;;;;-5.04;100.00;150092.03;5016841;28;20812;-75
2023/12/04 01:21:44;;;;;;;17.40;10.63;;;;;;;-5.00;100.00;150100.94;5018562;28;20535;-75
2023/12/04 01:24:11;;;;;;;16.63;11.90;;;;;;;-5.02;100.00;150097.13;4998927;28;20439;-75
2023/12/04 01:26:39;;;;;;;15.00;10.47;;;;;;;-4.98;100.00;150107.31;5013221;28;20435;-75
2023/12/04 01:29:05;;;;;;;16.47;11.10;;;;;;;-4.95;100.00;150114.97;5022051;28;20465;-75
2023/12/04 01:31:32;;;;;;;18.37;11.20;;;;;;;-4.89;100.00;150127.75;5016401;28;21859;-75
2023/12/04 01:33:58;;;;;;;20.97;12.43;;;;;;;-4.89;100.00;150127.75;5016931;28;20455;-75
2023/12/04 01:36:25;;;;;;;18.77;12.63;;;;;;;-4.90;100.00;150125.22;5020127;28;20812;-75
2023/12/04 01:38:51;;;;;;;17.50;12.27;;;;;;;-4.84;100.00;150141.81;5026511;28;20463;-75
2023/12/04 01:41:18;;;;;;;13.53;10.00;;;;;;;-4.87;100.00;150132.91;5015614;28;20454;-75
2023/12/04 01:43:46;;;;;;;21.00;12.20;;;;;;;-4.89;100.00;150127.75;5018986;28;20978;-75
2023/12/04 01:46:14;;;;;;;19.20;12.50;;;;;;;-4.88;100.00;150130.31;5010500;28;20812;-75
2023/12/04 01:48:41;;;;;;;16.73;11.30;;;;;;;-4.78;100.00;150155.88;5021993;28;20985;-75
2023/12/04 01:51:10;;;;;;;19.30;10.73;;;;;;;-4.82;100.00;150146.97;5019368;28;20515;-75
2023/12/04 01:53:39;;;;;;;16.33;11.13;;;;;;;-4.81;100.00;150148.19;5021107;28;20440;-75
2023/12/04 01:56:07;;;;;;;15.80;10.67;;;;;;;-4.83;100.00;150143.09;5029788;28;20487;-75
2023/12/04 01:58:33;;;;;;;14.57;11.73;;;;;;;-4.85;100.00;150139.28;5026354;28;20463;-75
2023/12/04 02:01:02;;;;;;;16.50;11.50;;;;;;;-4.79;100.00;150154.56;5042820;28;20443;-75
2023/12/04 02:03:29;;;;;;;16.43;11.00;;;;;;;-4.77;100.00;150158.44;5010982;28;20471;-75
2023/12/04 02:05:55;;;;;;;17.83;9.93;;;;;;;-4.75;100.00;150163.53;5024621;28;21001;-75
2023/12/04 02:08:22;;;;;;;20.03;11.33;;;;;;;-4.76;100.00;150160.97;5014184;28;20487;-75
2023/12/04 02:10:49;;;;;;;14.50;10.30;;;;;;;-4.79;100.00;150153.34;5043830;28;20773;-87
2023/12/04 02:13:15;;;;;;;17.33;10.93;;;;;;;-4.79;100.00;150154.56;5024338;28;20499;-88
2023/12/04 02:15:42;;;;;;;19.00;11.27;;;;;;;-4.79;100.00;150153.34;5020886;28;20479;-88
2023/12/04 02:18:10;;;;;;;17.33;11.57;;;;;;;-4.82;100.00;150145.66;5010508;28;21053;-87
2023/12/04 02:20:36;;;;;;;14.60;10.03;;;;;;;-4.77;100.00;150158.44;5028878;28;20852;-87
2023/12/04 02:23:03;;;;;;;21.27;12.20;;;;;;;-4.71;100.00;150173.78;5021368;28;20433;-87
2023/12/04 02:25:31;;;;;;;15.70;10.57;;;;;;;-4.69;100.00;150178.88;5027026;28;20415;-75
2023/12/04 02:28:00;;;;;;;15.57;10.10;;;;;;;-4.65;100.00;150189.09;5015952;28;20452;-74
2023/12/04 02:30:29;;;;;;;14.80;10.33;;;;;;;-4.67;100.00;150185.28;5016803;28;20441;-75
2023/12/04 02:32:58;;;;;;;16.57;9.60;;;;;;;-4.67;100.00;150183.97;5021513;28;20959;-75
2023/12/04 02:35:27;;;;;;;15.00;10.07;;;;;;;-4.66;100.00;150187.78;5018864;28;20464;-75
2023/12/04 02:37:54;;;;;;;16.30;10.70;;;;;;;-4.64;100.00;150191.66;5016187;28;20524;-75
2023/12/04 02:40:21;;;;;;;11.90;7.90;;;;;;;-4.65;100.00;150189.09;5026542;28;20446;-75
2023/12/04 02:42:48;;;;;;;14.77;9.97;;;;;;;-4.61;100.00;150199.34;5024295;28;20853;-75
2023/12/04 02:45:15;;;;;;;13.50;8.57;;;;;;;-4.65;100.00;150190.38;5022964;28;20442;-75
2023/12/04 02:47:41;;;;;;;11.47;8.70;;;;;;;-4.68;100.00;150181.41;5025895;28;20452;-75
2023/12/04 02:50:08;;;;;;;13.90;8.47;;;;;;;-4.73;100.00;150168.63;5022458;28;20464;-75
2023/12/04 02:52:35;;;;;;;18.03;9.80;;;;;;;-4.80;100.00;150150.78;5023745;28;20558;-75
2023/12/04 02:55:01;;;;;;;13.00;9.20;;;;;;;-4.87;100.00;150132.91;5007805;28;20480;-75
2023/12/04 02:57:28;;;;;;;15.27;10.07;;;;;;;-4.95;100.00;150114.97;5035013;28;20553;-75
2023/12/04 02:59:56;;;;;;;16.20;9.10;;;;;;;-4.91;100.00;150123.94;5021463;28;20440;-75
2023/12/04 03:02:22;;;;;;;14.50;9.83;;;;;;;-4.89;100.00;150127.75;5020018;28;20480;-75
2023/12/04 03:04:49;;;;;;;14.67;9.83;;;;;;;-4.91;100.00;150123.94;5028011;28;20460;-75
2023/12/04 03:07:16;;;;;;;17.27;10.97;;;;;;;-4.90;100.00;150125.22;5022928;28;20445;-75
2023/12/04 03:09:42;;;;;;;14.63;9.00;;;;;;;-4.93;100.00;150120.13;5018044;28;20431;-75
2023/12/04 03:12:09;;;;;;;14.17;9.93;;;;;;;-4.98;100.00;150107.31;5025956;28;20476;-75
2023/12/04 03:14:35;;;;;;;13.87;8.87;;;;;;;-5.00;100.00;150100.94;5022682;28;20431;-75
2023/12/04 03:17:03;;;;;;;20.73;11.33;;;;;;;-4.96;100.00;150112.47;5042587;28;20922;-75
2023/12/04 03:19:30;;;;;;;15.60;10.17;;;;;;;-4.89;100.00;150127.75;5030733;28;20489;-75
2023/12/04 03:21:56;;;;;;;14.03;10.00;;;;;;;-4.87;100.00;150134.13;5019703;28;20483;-75
2023/12/04 03:24:23;;;;;;;15.60;8.40;;;;;;;-4.94;100.00;150117.56;5024683;28;20470;-75
2023/12/04 03:26:49;;;;;;;13.50;9.67;;;;;;;-4.95;100.00;150114.97;5026069;28;20449;-75
2023/12/04 03:29:16;;;;;;;12.43;8.60;;;;;;;-4.95;100.00;150113.75;5026766;28;20441;-74
2023/12/04 03:31:42;;;;;;;12.13;9.23;;;;;;;-4.90;100.00;150125.22;5023381;28;20447;-73
2023/12/04 03:34:10;;;;;;;14.73;8.87;;;;;;;-4.89;100.00;150127.75;5007138;28;20409;-75
2023/12/04 03:36:37;;;;;;;15.03;10.63;;;;;;;-4.89;100.00;150127.75;5020773;28;20517;-75
2023/12/04 03:39:04;;;;;;;15.87;10.60;;;;;;;-4.90;100.00;150125.22;5039088;28;20871;-74
2023/12/04 03:41:30;;;;;;;13.90;9.37;;;;;;;-4.87;100.00;150132.91;5020241;28;20447;-74
2023/12/04 03:43:57;;;;;;;12.10;8.00;;;;;;;-4.89;100.00;150127.75;5021121;28;20437;-74
2023/12/04 03:46:23;;;;;;;14.73;9.37;;;;;;;-4.92;100.00;150122.66;5005572;28;20427;-74
2023/12/04 03:48:50;;;;;;;13.60;9.13;;;;;;;-4.86;100.00;150135.44;5025050;28;20420;-74
2023/12/04 03:51:18;;;;;;;13.60;9.80;;;;;;;-4.83;100.00;150144.38;5028958;28;20452;-74
2023/12/04 03:53:44;;;;;;;12.30;9.47;;;;;;;-4.81;100.00;150148.19;5022424;28;20474;-74
2023/12/04 03:56:11;;;;;;;14.03;10.10;;;;;;;-4.79;100.00;150153.34;5024599;28;23445;-75
2023/12/04 03:58:38;;;;;;;15.50;9.63;;;;;;;-4.82;100.00;150145.66;5025381;28;20427;-74
2023/12/04 04:01:05;;;;;;;15.13;10.73;;;;;;;-4.84;100.00;150141.81;5029136;28;20472;-74
2023/12/04 04:03:31;;;;;;;17.00;9.90;;;;;;;-4.84;100.00;150140.56;5019933;28;20435;-74
2023/12/04 04:05:58;;;;;;;17.40;9.37;;;;;;;-4.83;100.00;150143.09;5025367;28;20469;-74
2023/12/04 04:08:26;;;;;;;12.60;8.33;;;;;;;-4.83;100.00;150143.09;5023267;28;20485;-74
2023/12/04 04:10:52;;;;;;;12.83;9.33;;;;;;;-4.79;100.00;150154.56;5032573;28;20456;-74
2023/12/04 04:13:19;;;;;;;13.40;8.97;;;;;;;-4.79;100.00;150153.34;5029460;28;20465;-74
2023/12/04 04:15:46;;;;;;;14.20;9.33;;;;;;;-4.81;100.00;150148.19;5019560;28;20448;-75
2023/12/04 04:18:12;;;;;;;14.47;9.60;;;;;;;-4.82;100.00;150145.66;5018426;28;20588;-75
2023/12/04 04:20:39;;;;;;;11.70;8.03;;;;;;;-4.82;100.00;150145.66;5020526;28;20447;-75
2023/12/04 04:23:05;;;;;;;16.80;10.43;;;;;;;-4.84;100.00;150140.56;5027418;28;20528;-75
2023/12/04 04:25:33;;;;;;;14.60;9.63;;;;;;;-4.82;100.00;150145.66;5026405;28;20517;-75
2023/12/04 04:27:59;;;;;;;14.23;8.27;;;;;;;-4.82;100.00;150145.66;5043572;28;20856;-75
2023/12/04 04:30:26;;;;;;;14.23;9.70;;;;;;;-4.80;100.00;150150.78;5028223;28;20488;-75
2023/12/04 04:32:52;;;;;;;13.70;9.53;;;;;;;-4.82;100.00;150145.66;5041197;28;20448;-75
2023/12/04 04:35:19;;;;;;;12.87;8.97;;;;;;;-4.83;100.00;150144.38;5005806;28;20456;-75
2023/12/04 04:37:45;;;;;;;12.93;9.00;;;;;;;-4.85;100.00;150139.28;5029649;28;20463;-75
2023/12/04 04:40:12;;;;;;;14.50;10.80;;;;;;;-4.82;100.00;150145.66;5028002;28;20418;-76
2023/12/04 04:42:40;;;;;;;12.83;9.50;;;;;;;-4.84;100.00;150141.81;5024398;28;20461;-75
2023/12/04 04:45:07;;;;;;;17.07;10.30;;;;;;;-4.84;100.00;150140.56;5009979;28;20442;-75
2023/12/04 04:47:34;;;;;;;15.63;9.20;;;;;;;-4.88;100.00;150130.31;5030860;28;20456;-75
2023/12/04 04:50:00;;;;;;;16.90;10.30;;;;;;;-4.91;100.00;150123.94;5028056;28;20411;-75
2023/12/04 04:52:27;;;;;;;16.23;10.97;;;;;;;-4.91;100.00;150123.94;5026871;28;20419;-75
2023/12/04 04:54:53;;;;;;;9.90;8.13;;;;;;;-4.90;100.00;150125.22;5025552;28;20532;-75
2023/12/04 04:57:20;;;;;;;13.13;9.70;;;;;;;-4.88;100.00;150131.63;5025197;28;20481;-75
2023/12/04 04:59:48;;;;;;;15.03;10.00;;;;;;;-4.91;100.00;150123.94;5024724;28;20431;-75
2023/12/04 05:02:14;;;;;;;15.27;10.27;;;;;;;-4.90;100.00;150125.22;5024332;28;20879;-75
2023/12/04 05:04:41;;;;;;;13.47;9.63;;;;;;;-4.90;100.00;150125.22;5030150;28;20455;-74
2023/12/04 05:07:07;;;;;;;14.63;9.93;;;;;;;-4.89;100.00;150127.75;5026013;28;20500;-75
2023/12/04 05:09:34;;;;;;;13.60;9.67;;;;;;;-4.85;100.00;150139.28;5024685;28;20466;-75
2023/12/04 05:12:00;;;;;;;16.47;10.20;;;;;;;-4.87;100.00;150134.13;5014758;28;20481;-75
2023/12/04 05:14:27;;;;;;;14.80;11.00;;;;;;;-4.84;100.00;150140.56;5017183;28;20449;-75
2023/12/04 05:16:55;;;;;;;16.73;9.27;;;;;;;-4.78;100.00;150155.88;5023841;28;20422;-75
2023/12/04 05:19:21;;;;;;;15.70;9.90;;;;;;;-4.76;100.00;150162.25;5022520;28;20458;-75
2023/12/04 05:21:48;;;;;;;13.87;9.37;;;;;;;-4.78;100.00;150157.16;5020542;28;20484;-75
2023/12/04 05:24:14;;;;;;;14.20;10.57;;;;;;;-4.79;100.00;150153.34;5026278;28;20448;-75
2023/12/04 05:26:41;;;;;;;15.80;10.60;;;;;;;-4.79;100.00;150153.34;5016134;28;20452;-75
2023/12/04 05:29:08;;;;;;;15.33;10.20;;;;;;;-4.80;100.00;150150.78;5018950;28;20430;-75
2023/12/04 05:31:34;;;;;;;15.00;9.63;;;;;;;-4.78;100.00;150157.16;5023305;28;20736;-75
2023/12/04 05:34:02;;;;;;;15.30;10.00;;;;;;;-4.77;100.00;150159.72;5022447;28;20427;-75
2023/12/04 05:36:29;;;;;;;18.27;11.27;;;;;;;-4.77;100.00;150158.44;5018770;28;20809;-75
2023/12/04 05:38:55;;;;;;;14.80;10.13;;;;;;;-4.79;100.00;150153.34;5029791;28;20459;-75
2023/12/04 05:41:22;;;;;;;16.00;9.83;;;;;;;-4.80;100.00;150152.06;5032681;28;20467;-75
2023/12/04 05:43:48;;;;;;;14.50;9.90;;;;;;;-4.78;100.00;150157.16;5024385;28;20452;-75
2023/12/04 05:46:15;;;;;;;10.13;8.20;;;;;;;-4.80;100.00;150150.78;5037444;28;20479;-75
2023/12/04 05:48:41;;;;;;;14.53;10.20;;;;;;;-4.78;100.00;150155.88;5018153;28;20519;-75
2023/12/04 05:51:11;;;;;;;15.63;10.47;;;;;;;-4.76;100.00;150160.97;5026678;28;20931;-75
2023/12/04 05:53:37;;;;;;;14.90;10.33;;;;;;;-4.76;100.00;150160.97;5021473;28;20958;-75
2023/12/04 05:56:06;;;;;;;14.47;8.50;;;;;;;-4.76;100.00;150160.97;5019271;28;20943;-75
2023/12/04 05:58:32;;;;;;;14.20;9.80;;;;;;;-4.76;100.00;150160.97;5024827;28;20852;-75
2023/12/04 06:00:59;;;;;;;14.27;9.80;;;;;;;-4.79;100.00;150153.34;5026275;28;20467;-75
2023/12/04 06:03:26;;;;;;;10.87;9.10;;;;;;;-4.80;100.00;150150.78;5023418;28;20478;-75
2023/12/04 06:05:52;;;;;;;15.33;9.00;;;;;;;-4.80;100.00;150152.06;5030264;28;21864;-74
2023/12/04 06:08:20;;;;;;;10.83;9.17;;;;;;;-4.82;100.00;150145.66;5029500;28;20459;-75
2023/12/04 06:10:47;;;;;;;15.40;9.33;;;;;;;-4.83;100.00;150143.09;5016264;28;20557;-75
2023/12/04 06:13:13;;;;;;;10.30;7.90;;;;;;;-4.84;100.00;150141.81;5018270;28;20423;-75
2023/12/04 06:15:40;;;;;;;12.27;8.60;;;;;;;-4.86;100.00;150135.44;5017198;28;20456;-75
2023/12/04 06:18:06;;;;;;;11.20;8.00;;;;;;;-4.86;100.00;150135.44;5030858;28;20453;-75
2023/12/04 06:20:33;;;;;;;13.47;8.60;;;;;;;-4.83;100.00;150143.09;5029177;28;20997;-75
2023/12/04 06:23:01;;;;;;;14.10;8.67;;;;;;;-4.79;100.00;150154.56;4998231;28;20464;-75
2023/12/04 06:25:32;;;;;;;14.07;9.57;;;;;;;-4.79;100.00;150153.34;5003521;28;20608;-75
2023/12/04 06:27:59;;;;;;;18.67;11.30;;;;;;;-4.84;100.00;150141.81;5032098;28;20427;-75
2023/12/04 06:30:27;;;;;;;14.30;9.03;;;;;;;-4.84;100.00;150140.56;5016079;28;20430;-75
2023/12/04 06:32:54;;;;;;;13.73;9.63;;;;;;;-4.88;100.00;150131.63;5015730;28;21043;-75
2023/12/04 06:35:21;;;;;;;14.53;9.67;;;;;;;-4.89;100.00;150129.03;5015944;28;20830;-75
2023/12/04 06:37:49;;;;;;;13.23;9.67;;;;;;;-4.90;100.00;150125.22;5019821;28;20494;-75
2023/12/04 06:40:17;;;;;;;14.20;9.90;;;;;;;-4.92;100.00;150122.66;5019814;28;20449;-75
2023/12/04 06:42:45;;;;;;;12.40;9.17;;;;;;;-4.93;100.00;150118.84;5019905;28;20465;-75
2023/12/04 06:45:12;;;;;;;11.77;9.07;;;;;;;-4.92;100.00;150122.66;5014068;28;20461;-75
2023/12/04 06:47:41;;;;;;;15.37;10.17;;;;;;;-4.93;100.00;150120.13;5012442;28;20653;-75
2023/12/04 06:50:40;;;;;;;12.87;8.80;;;;;;;-4.87;100.00;150132.91;5032025;28;20430;-75
2023/12/04 06:53:07;;;;;;;16.70;11.07;;;;;;;-4.88;100.00;150131.63;5017221;28;20419;-75
2023/12/04 06:55:33;;;;;;;13.57;9.60;;;;;;;-4.91;100.00;150123.94;5028273;28;20555;-75
2023/12/04 06:58:01;;;;;;;17.23;11.37;;;;;;;-4.90;100.00;150126.53;5019204;28;20456;-75
2023/12/04 07:00:28;;;;;;;12.93;9.63;;;;;;;-4.85;100.00;150139.28;5012196;28;20485;-75
2023/12/04 07:02:54;;;;;;;12.27;9.47;;;;;;;-4.82;100.00;150145.66;5016927;28;20904;-75
2023/12/04 07:05:21;;;;;;;17.70;10.47;;;;;;;-4.86;100.00;150136.72;5016278;28;21104;-75
2023/12/04 07:07:47;;;;;;;15.77;10.40;;;;;;;-4.85;100.00;150138.00;5033993;28;20480;-75
2023/12/04 07:10:14;;;;;;;14.30;9.80;;;;;;;-4.85;100.00;150139.28;5016096;28;20439;-75
2023/12/04 07:12:41;;;;;;;14.00;9.40;;;;;;;-4.82;100.00;150145.66;5017515;28;20420;-75
2023/12/04 07:15:10;;;;;;;13.77;10.60;;;;;;;-4.80;100.00;150150.78;5034461;28;20473;-75
2023/12/04 07:17:37;;;;;;;20.20;12.00;;;;;;;-4.78;100.00;150155.88;5015116;28;20422;-75
2023/12/04 07:20:06;;;;;;;20.30;11.20;;;;;;;-4.76;100.00;150160.97;5013564;28;20488;-74
2023/12/04 07:22:32;;;;;;;15.20;10.90;;;;;;;-4.77;100.00;150159.72;5029749;28;20478;-75
2023/12/04 07:24:59;;;;;;;15.43;9.83;;;;;;;-4.74;100.00;150166.13;5015571;28;20426;-74
2023/12/04 07:27:25;;;;;;;16.23;10.17;;;;;;;-4.77;100.00;150159.72;5012258;28;20514;-74
2023/12/04 07:29:52;;;;;;;14.93;11.10;;;;;;;-4.76;100.00;150162.25;5030194;28;20483;-75
2023/12/04 07:32:20;;;;;;;14.03;9.80;;;;;;;-4.78;100.00;150157.16;5014096;28;20483;-75
2023/12/04 07:34:46;;;;;;;15.97;10.77;;;;;;;-4.79;100.00;150153.34;5011735;28;20434;-75
2023/12/04 07:37:13;;;;;;;17.27;11.40;;;;;;;-4.82;100.00;150145.66;5001286;28;20506;-75
2023/12/04 07:39:39;;;;;;;12.27;9.63;;;;;;;-4.82;100.00;150145.66;5020807;28;20453;-75
2023/12/04 07:42:06;;;;;;;17.27;10.43;;;;;;;-4.79;100.00;150153.34;5020416;28;20461;-75
2023/12/04 07:44:32;;;;;;;15.60;10.57;;;;;;;-4.79;100.00;150153.34;5034609;28;20430;-75
2023/12/04 07:46:59;;;;;;;14.90;10.17;;;;;;;-4.78;100.00;150157.16;5018216;28;20459;-75
2023/12/04 07:49:27;;;;;;;12.50;9.87;;;;;;;-4.76;100.00;150160.97;5017651;28;20501;-75
2023/12/04 07:51:54;;;;;;;17.63;10.67;;;;;;;-4.72;100.00;150171.22;5021835;28;20478;-75
2023/12/04 07:54:22;;;;;;;16.43;9.90;;;;;;;-4.64;100.00;150191.66;5018818;28;20477;-75
2023/12/04 07:56:48;;;;;;;17.07;10.77;;;;;;;-4.63;100.00;150194.22;5018210;28;20490;-75
2023/12/04 07:59:15;;;;;;;15.93;9.80;;;;;;;-4.61;100.00;150199.34;5021491;28;20451;-75
2023/12/04 08:01:41;;;;;;;13.30;9.43;;;;;;;-4.60;100.00;150203.16;5019141;28;20443;-75
2023/12/04 08:04:08;;;;;;;13.30;10.07;;;;;;;-4.58;100.00;150208.25;5020219;28;20918;-75
2023/12/04 08:06:36;;;;;;;12.10;9.07;;;;;;;-4.55;100.00;150215.91;5017332;28;20850;-75
2023/12/04 08:09:05;;;;;;;12.53;9.50;;;;;;;-4.53;100.00;150221.06;5024380;28;20476;-75
2023/12/04 08:11:32;;;;;;;14.40;10.33;;;;;;;-4.47;100.00;150235.06;5021880;28;20456;-75
2023/12/04 08:13:58;;;;;;;14.40;10.63;;;;;;;-4.41;100.00;150250.44;5018266;28;20452;-75
2023/12/04 08:16:27;;;;;;;11.87;9.17;;;;;;;-4.38;100.00;150258.09;5001598;28;20460;-74
2023/12/04 08:18:54;;;;;;;14.30;9.67;;;;;;;-4.37;100.00;150260.69;5020153;28;20455;-75
2023/12/04 08:21:20;;;;;;;15.80;10.57;;;;;;;-4.36;100.00;150263.19;5002894;28;21108;-74
2023/12/04 08:23:48;;;;;;;16.07;10.27;;;;;;;-4.36;100.00;150263.19;5008821;28;20834;-74
2023/12/04 08:26:22;;;;;;;14.80;10.07;;;;;;;-4.31;100.00;150275.97;5023181;28;20925;-74
2023/12/04 08:28:49;;;;;;;12.83;9.50;;;;;;;-4.28;100.00;150283.66;5016327;28;20435;-74
2023/12/04 08:31:15;;;;;;;14.73;10.17;;;;;;;-4.28;100.00;150283.66;5019563;28;20443;-74
2023/12/04 08:33:42;;;;;;;19.37;10.97;;;;;;;-4.32;100.00;150273.44;5005880;28;20484;-74
2023/12/04 08:36:10;;;;;;;10.33;9.23;;;;;;;-4.32;100.00;150274.75;5004570;28;20448;-74
2023/12/04 08:38:36;;;;;;;15.43;10.23;;;;;;;-4.29;100.00;150281.13;5023217;28;20429;-74
2023/12/04 08:41:05;;;;;;;14.20;9.07;;;;;;;-4.25;100.00;150290.03;5009878;28;20522;-74
2023/12/04 08:43:31;;;;;;;17.93;11.00;;;;;;;-4.21;100.00;150300.28;4990459;28;20475;-74
2023/12/04 08:45:58;;;;;;;17.93;11.07;;;;;;;-4.22;100.00;150299.00;4998949;28;20876;-74
2023/12/04 08:48:25;;;;;;;15.80;10.53;;;;;;;-4.17;100.00;150310.50;5006060;28;20454;-74
2023/12/04 08:50:51;;;;;;;15.70;11.43;;;;;;;-4.14;100.00;150318.16;5005612;28;20462;-74
2023/12/04 08:53:18;;;;;;;18.60;10.17;;;;;;;-4.09;100.00;150330.94;5000923;28;20464;-86
2023/12/04 08:55:47;;;;;;;16.40;10.37;;;;;;;-4.04;100.00;150345.03;5019374;28;21044;-85
2023/12/04 08:58:15;;;;;;;14.03;9.80;;;;;;;-3.98;100.00;150360.38;5002542;28;20462;-85
2023/12/04 09:00:42;;;;;;;16.17;10.57;;;;;;;-3.93;100.00;150371.88;4999351;28;20520;-85
2023/12/04 09:03:10;;;;;;;14.17;9.33;;;;;;;-3.92;100.00;150375.69;5018725;28;20600;-85
2023/12/04 09:05:37;;;;;;;16.10;10.00;;;;;;;-3.90;100.00;150380.84;5002907;28;20533;-85
2023/12/04 09:08:03;;;;;;;14.33;9.10;;;;;;;-3.88;100.00;150385.94;5006628;28;20487;-85
2023/12/04 09:10:30;;;;;;;16.00;10.10;;;;;;;-3.83;100.00;150397.44;5002967;28;20464;-84
2023/12/04 09:12:56;;;;;;;14.67;9.30;;;;;;;-3.83;100.00;150397.44;5016160;28;20454;-86
2023/12/04 09:15:24;;;;;;;15.40;9.40;;;;;;;-3.85;100.00;150393.63;5016780;28;20807;-86
2023/12/04 09:17:51;;;;;;;16.27;10.37;;;;;;;-3.87;100.00;150388.50;5014803;28;20470;-85
2023/12/04 09:20:17;;;;;;;13.43;9.60;;;;;;;-3.84;100.00;150396.16;5017049;28;20453;-86
2023/12/04 09:22:44;;;;;;;15.87;9.30;;;;;;;-3.80;100.00;150405.09;5016477;28;20481;-86
2023/12/04 09:25:11;;;;;;;11.00;8.97;;;;;;;-3.73;100.00;150424.28;5032611;28;20505;-86
2023/12/04 09:27:38;;;;;;;13.00;9.40;;;;;;;-3.66;100.00;150439.66;5018203;28;20476;-87
2023/12/04 09:30:07;;;;;;;14.57;9.90;;;;;;;-3.61;100.00;150452.44;5017054;28;20946;-86
2023/12/04 09:32:35;;;;;;;13.43;9.40;;;;;;;-3.58;100.00;150460.09;5016517;28;20436;-86
2023/12/04 09:35:02;;;;;;;14.80;9.80;;;;;;;-3.54;100.00;150470.31;5031906;28;20543;-86
2023/12/04 09:37:28;;;;;;;15.07;10.10;;;;;;;-3.48;100.00;150485.69;5017373;28;20453;-86
2023/12/04 09:39:55;;;;;;;18.97;11.90;;;;;;;-3.40;100.00;150507.44;5019558;28;20452;-86
2023/12/04 09:42:21;;;;;;;14.50;9.57;;;;;;;-3.36;100.00;150516.41;5017853;28;20491;-87
2023/12/04 09:44:49;;;;;;;13.43;9.70;;;;;;;-3.31;100.00;150530.44;5032191;28;21196;-86
2023/12/04 09:47:17;;;;;;;13.47;9.40;;;;;;;-3.27;100.00;150540.69;5017254;28;20470;-86
2023/12/04 09:49:55;;;;;;;17.50;10.60;;;;;;;-3.25;100.00;150545.81;5020607;28;20441;-87
2023/12/04 09:52:22;;;;;;;14.70;9.47;;;;;;;-3.21;100.00;150554.78;5013798;28;20464;-86
2023/12/04 09:54:49;;;;;;;14.80;10.67;;;;;;;-3.21;100.00;150554.78;5020177;28;20455;-86
2023/12/04 09:57:16;;;;;;;15.00;10.03;;;;;;;-3.20;100.00;150557.31;5032419;28;20967;-86
2023/12/04 09:59:44;;;;;;;13.67;9.77;;;;;;;-3.20;100.00;150558.59;5015501;28;20464;-86
2023/12/04 10:02:11;;;;;;;15.47;10.30;;;;;;;-3.16;100.00;150567.56;5032219;28;21003;-86
2023/12/04 10:04:38;;;;;;;15.43;9.67;;;;;;;-3.15;100.00;150570.13;5032601;28;20481;-86
2023/12/04 10:07:06;;;;;;;13.47;10.47;;;;;;;-3.14;100.00;150572.66;5017241;28;20513;-86
2023/12/04 10:09:32;;;;;;;16.23;10.83;;;;;;;-3.10;100.00;150582.94;5015964;28;20524;-86
2023/12/04 10:11:59;;;;;;;13.33;9.60;;;;;;;-3.06;100.00;150593.16;5016889;28;20457;-86
2023/12/04 10:14:26;;;;;;;12.00;9.47;;;;;;;-3.02;100.00;150602.13;5017175;28;20456;-86
2023/12/04 10:16:53;;;;;;;14.97;10.57;;;;;;;-3.00;100.00;150608.50;5017188;28;20602;-86
2023/12/04 10:19:22;;;;;;;15.50;8.60;;;;;;;-2.97;100.00;150616.19;5022706;28;20968;-86
2023/12/04 10:21:50;;;;;;;13.20;10.00;;;;;;;-2.92;100.00;150629.00;5030640;28;20454;-86
2023/12/04 10:24:29;;;;;;;13.90;9.70;;;;;;;-2.86;100.00;150644.31;5016216;28;20487;-86
2023/12/04 10:26:57;;;;;;;12.47;9.00;;;;;;;-2.82;100.00;150654.56;5016986;28;20456;-86
2023/12/04 10:29:24;;;;;;;14.97;10.97;;;;;;;-2.79;100.00;150660.97;5011122;28;20515;-86
2023/12/04 10:31:52;;;;;;;14.87;10.23;;;;;;;-2.77;100.00;150666.09;5016513;28;20469;-86
2023/12/04 10:34:20;;;;;;;16.00;9.77;;;;;;;-2.75;100.00;150672.47;5037546;28;20782;-86
2023/12/04 10:36:47;;;;;;;11.33;8.73;;;;;;;-2.72;100.00;150680.16;5034908;28;20824;-86
2023/12/04 10:39:14;;;;;;;14.30;10.87;;;;;;;-2.69;100.00;150686.56;5022290;28;20463;-86
2023/12/04 10:41:42;;;;;;;12.43;8.80;;;;;;;-2.66;100.00;150695.53;5035661;28;20812;-86
2023/12/04 10:44:09;;;;;;;10.27;7.83;;;;;;;-2.61;100.00;150707.06;5018913;28;20479;-86
2023/12/04 10:46:37;;;;;;;12.60;9.07;;;;;;;-2.57;100.00;150718.56;5016604;28;21024;-86
2023/12/04 10:49:05;;;;;;;12.40;8.40;;;;;;;-2.53;100.00;150728.81;5032882;28;20980;-86
2023/12/04 10:51:31;;;;;;;14.37;9.10;;;;;;;-2.48;100.00;150741.63;5018875;28;20462;-86
2023/12/04 10:53:58;;;;;;;11.70;8.90;;;;;;;-2.44;100.00;150750.59;5019407;28;20454;-86
2023/12/04 10:56:28;;;;;;;11.27;8.60;;;;;;;-2.40;100.00;150759.53;5031481;28;20465;-85
2023/12/04 10:58:58;;;;;;;13.10;9.13;;;;;;;-2.35;100.00;150772.31;5014539;28;20464;-86
2023/12/04 11:01:26;;;;;;;13.47;8.43;;;;;;;-2.31;100.00;150783.88;5015910;28;20533;-86
2023/12/04 11:03:54;;;;;;;13.70;9.20;;;;;;;-2.27;100.00;150794.13;5019667;28;21076;-85